sensor_id;sensor_type;location;lat;lon;timestamp;pressure;altitude;pressure_sealevel;temperature;humidity
71774;BME280;59607;52.130;5.430;2023-06-26T00:02:23;101241.41;;;22.71;79.22
71774;BME280;59607;52.130;5.430;2023-06-26T00:04:52;101239.28;;;22.73;78.88
71774;BME280;59607;52.130;5.430;2023-06-26T00:07:24;101235.00;;;22.72;78.55
71774;BME280;59607;52.130;5.430;2023-06-26T00:09:55;101232.22;;;22.66;78.26
71774;BME280;59607;52.130;5.430;2023-06-26T00:12:24;101234.66;;;22.68;78.70
71774;BME280;59607;52.130;5.430;2023-06-26T00:14:51;101238.38;;;22.67;78.99
71774;BME280;59607;52.130;5.430;2023-06-26T00:17:22;101237.31;;;22.68;78.78
71774;BME280;59607;52.130;5.430;2023-06-26T00:19:51;101242.13;;;22.66;80.13
71774;BME280;59607;52.130;5.430;2023-06-26T00:22:21;101241.53;;;22.64;79.55
71774;BME280;59607;52.130;5.430;2023-06-26T00:24:51;101239.66;;;22.64;79.55
71774;BME280;59607;52.130;5.430;2023-06-26T00:27:18;101241.53;;;22.64;78.88
71774;BME280;59607;52.130;5.430;2023-06-26T00:29:47;101225.97;;;22.61;79.16
71774;BME280;59607;52.130;5.430;2023-06-26T00:32:18;101235.00;;;22.60;78.96
71774;BME280;59607;52.130;5.430;2023-06-26T00:34:45;101227.44;;;22.56;78.23
71774;BME280;59607;52.130;5.430;2023-06-26T00:37:18;101222.09;;;22.56;79.02
71774;BME280;59607;52.130;5.430;2023-06-26T00:39:45;101218.03;;;22.54;79.19
71774;BME280;59607;52.130;5.430;2023-06-26T00:42:14;101216.66;;;22.51;78.85
71774;BME280;59607;52.130;5.430;2023-06-26T00:44:40;101213.38;;;22.49;77.63
71774;BME280;59607;52.130;5.430;2023-06-26T00:47:07;101215.81;;;22.51;77.71
71774;BME280;59607;52.130;5.430;2023-06-26T00:49:33;101207.81;;;22.51;75.75
71774;BME280;59607;52.130;5.430;2023-06-26T00:52:05;101218.72;;;22.49;76.17
71774;BME280;59607;52.130;5.430;2023-06-26T00:54:34;101208.28;;;22.48;77.21
71774;BME280;59607;52.130;5.430;2023-06-26T00:57:07;101210.13;;;22.47;77.16
71774;BME280;59607;52.130;5.430;2023-06-26T00:59:34;101217.00;;;22.43;78.54
71774;BME280;59607;52.130;5.430;2023-06-26T01:02:04;101209.69;;;22.38;77.92
71774;BME280;59607;52.130;5.430;2023-06-26T01:04:31;101220.03;;;22.35;78.27
71774;BME280;59607;52.130;5.430;2023-06-26T01:07:02;101212.59;;;22.37;77.62
71774;BME280;59607;52.130;5.430;2023-06-26T01:09:35;101218.38;;;22.34;78.49
71774;BME280;59607;52.130;5.430;2023-06-26T01:12:03;101220.81;;;22.35;78.95
71774;BME280;59607;52.130;5.430;2023-06-26T01:14:36;101231.84;;;22.39;78.38
71774;BME280;59607;52.130;5.430;2023-06-26T01:17:03;101225.81;;;22.43;78.19
71774;BME280;59607;52.130;5.430;2023-06-26T01:19:31;101232.88;;;22.50;77.75
71774;BME280;59607;52.130;5.430;2023-06-26T01:22:13;101232.44;;;22.53;77.09
71774;BME280;59607;52.130;5.430;2023-06-26T01:25:03;101236.03;;;22.59;76.29
71774;BME280;59607;52.130;5.430;2023-06-26T01:27:32;101230.84;;;22.64;76.01
71774;BME280;59607;52.130;5.430;2023-06-26T01:30:04;101246.75;;;22.71;74.95
71774;BME280;59607;52.130;5.430;2023-06-26T01:32:33;101254.41;;;22.79;74.91
71774;BME280;59607;52.130;5.430;2023-06-26T01:35:02;101259.84;;;22.84;73.95
71774;BME280;59607;52.130;5.430;2023-06-26T01:37:31;101256.94;;;22.86;74.05
71774;BME280;59607;52.130;5.430;2023-06-26T01:39:57;101264.97;;;22.86;73.62
71774;BME280;59607;52.130;5.430;2023-06-26T01:42:26;101263.59;;;22.83;74.00
71774;BME280;59607;52.130;5.430;2023-06-26T01:45:06;101262.75;;;22.83;73.27
71774;BME280;59607;52.130;5.430;2023-06-26T01:47:48;101261.16;;;22.82;73.36
71774;BME280;59607;52.130;5.430;2023-06-26T01:50:27;101263.81;;;22.82;73.11
71774;BME280;59607;52.130;5.430;2023-06-26T01:53:12;101272.31;;;22.78;73.04
71774;BME280;59607;52.130;5.430;2023-06-26T01:55:47;101261.97;;;22.70;73.27
71774;BME280;59607;52.130;5.430;2023-06-26T01:58:23;101260.84;;;22.66;74.20
71774;BME280;59607;52.130;5.430;2023-06-26T02:00:54;101263.38;;;22.61;74.16
71774;BME280;59607;52.130;5.430;2023-06-26T02:03:21;101269.41;;;22.56;74.13
71774;BME280;59607;52.130;5.430;2023-06-26T02:05:51;101268.47;;;22.50;74.20
71774;BME280;59607;52.130;5.430;2023-06-26T02:11:02;101264.41;;;22.48;74.66
71774;BME280;59607;52.130;5.430;2023-06-26T02:13:29;101271.38;;;22.49;74.39
71774;BME280;59607;52.130;5.430;2023-06-26T02:15:55;101267.09;;;22.48;74.72
71774;BME280;59607;52.130;5.430;2023-06-26T02:18:22;101272.88;;;22.44;74.85
71774;BME280;59607;52.130;5.430;2023-06-26T02:20:57;101271.16;;;22.38;74.66
71774;BME280;59607;52.130;5.430;2023-06-26T02:23:24;101274.25;;;22.35;75.17
71774;BME280;59607;52.130;5.430;2023-06-26T02:25:50;101282.75;;;22.32;75.42
71774;BME280;59607;52.130;5.430;2023-06-26T02:28:16;101279.75;;;22.28;75.62
71774;BME280;59607;52.130;5.430;2023-06-26T02:30:43;101276.34;;;22.21;75.31
71774;BME280;59607;52.130;5.430;2023-06-26T02:33:09;101278.88;;;22.16;76.12
71774;BME280;59607;52.130;5.430;2023-06-26T02:35:50;101278.31;;;22.14;76.26
71774;BME280;59607;52.130;5.430;2023-06-26T02:38:22;101278.44;;;22.07;77.03
71774;BME280;59607;52.130;5.430;2023-06-26T02:40:49;101279.03;;;22.09;77.30
71774;BME280;59607;52.130;5.430;2023-06-26T02:43:15;101285.25;;;22.03;77.40
71774;BME280;59607;52.130;5.430;2023-06-26T02:45:47;101279.56;;;21.99;77.64
71774;BME280;59607;52.130;5.430;2023-06-26T02:48:14;101272.25;;;21.94;78.07
71774;BME280;59607;52.130;5.430;2023-06-26T02:50:45;101279.09;;;21.90;78.91
71774;BME280;59607;52.130;5.430;2023-06-26T02:53:14;101284.41;;;21.90;78.82
71774;BME280;59607;52.130;5.430;2023-06-26T02:55:43;101287.31;;;21.89;79.51
71774;BME280;59607;52.130;5.430;2023-06-26T02:58:14;101289.41;;;21.87;79.56
71774;BME280;59607;52.130;5.430;2023-06-26T03:00:40;101298.22;;;21.87;79.73
71774;BME280;59607;52.130;5.430;2023-06-26T03:03:11;101303.56;;;21.87;79.35
71774;BME280;59607;52.130;5.430;2023-06-26T03:05:42;101291.50;;;21.85;79.98
71774;BME280;59607;52.130;5.430;2023-06-26T03:08:11;101288.47;;;21.81;80.30
71774;BME280;59607;52.130;5.430;2023-06-26T03:10:39;101297.75;;;21.78;80.91
71774;BME280;59607;52.130;5.430;2023-06-26T03:13:06;101299.81;;;21.76;81.27
71774;BME280;59607;52.130;5.430;2023-06-26T03:15:32;101301.44;;;21.77;81.15
71774;BME280;59607;52.130;5.430;2023-06-26T03:17:59;101303.50;;;21.75;81.37
71774;BME280;59607;52.130;5.430;2023-06-26T03:20:28;101300.81;;;21.75;81.76
71774;BME280;59607;52.130;5.430;2023-06-26T03:22:54;101303.72;;;21.74;81.71
71774;BME280;59607;52.130;5.430;2023-06-26T03:25:23;101304.78;;;21.73;82.24
71774;BME280;59607;52.130;5.430;2023-06-26T03:27:59;101306.16;;;21.75;81.87
71774;BME280;59607;52.130;5.430;2023-06-26T03:30:31;101300.59;;;21.77;81.92
71774;BME280;59607;52.130;5.430;2023-06-26T03:32:58;101302.47;;;21.76;82.09
71774;BME280;59607;52.130;5.430;2023-06-26T03:35:27;101308.78;;;21.82;81.82
71774;BME280;59607;52.130;5.430;2023-06-26T03:37:54;101300.19;;;21.80;82.21
71774;BME280;59607;52.130;5.430;2023-06-26T03:40:21;101305.53;;;21.80;82.03
71774;BME280;59607;52.130;5.430;2023-06-26T03:42:50;101305.78;;;21.78;82.48
71774;BME280;59607;52.130;5.430;2023-06-26T03:45:19;101306.56;;;21.79;82.74
71774;BME280;59607;52.130;5.430;2023-06-26T03:47:46;101317.06;;;21.74;83.03
71774;BME280;59607;52.130;5.430;2023-06-26T03:50:24;101321.00;;;21.71;83.18
71774;BME280;59607;52.130;5.430;2023-06-26T03:52:51;101323.31;;;21.67;83.58
71774;BME280;59607;52.130;5.430;2023-06-26T03:55:25;101327.41;;;21.70;82.45
71774;BME280;59607;52.130;5.430;2023-06-26T03:57:51;101324.50;;;21.72;82.16
71774;BME280;59607;52.130;5.430;2023-06-26T04:00:21;101331.66;;;21.78;80.23
71774;BME280;59607;52.130;5.430;2023-06-26T04:02:47;101333.84;;;21.81;79.78
71774;BME280;59607;52.130;5.430;2023-06-26T04:05:14;101338.75;;;21.84;79.18
71774;BME280;59607;52.130;5.430;2023-06-26T04:07:50;101346.97;;;21.82;78.57
71774;BME280;59607;52.130;5.430;2023-06-26T04:10:17;101354.00;;;21.77;79.44
71774;BME280;59607;52.130;5.430;2023-06-26T04:12:45;101359.34;;;21.77;79.06
71774;BME280;59607;52.130;5.430;2023-06-26T04:15:14;101358.53;;;21.76;78.68
71774;BME280;59607;52.130;5.430;2023-06-26T04:17:40;101352.38;;;21.76;78.22
71774;BME280;59607;52.130;5.430;2023-06-26T04:20:09;101361.38;;;21.81;78.35
71774;BME280;59607;52.130;5.430;2023-06-26T04:22:42;101365.97;;;21.93;77.91
71774;BME280;59607;52.130;5.430;2023-06-26T04:25:09;101357.41;;;22.15;76.32
71774;BME280;59607;52.130;5.430;2023-06-26T04:27:41;101358.22;;;22.94;72.80
71774;BME280;59607;52.130;5.430;2023-06-26T04:30:08;101361.69;;;23.30;69.18
71774;BME280;59607;52.130;5.430;2023-06-26T04:32:45;101364.59;;;23.29;70.01
71774;BME280;59607;52.130;5.430;2023-06-26T04:35:13;101369.47;;;24.49;64.73
71774;BME280;59607;52.130;5.430;2023-06-26T04:37:46;101364.75;;;25.35;60.94
71774;BME280;59607;52.130;5.430;2023-06-26T04:40:12;101371.47;;;25.83;58.37
71774;BME280;59607;52.130;5.430;2023-06-26T04:42:42;101365.75;;;26.02;58.01
71774;BME280;59607;52.130;5.430;2023-06-26T04:45:12;101373.06;;;26.77;55.44
71774;BME280;59607;52.130;5.430;2023-06-26T04:47:39;101376.59;;;27.31;53.15
71774;BME280;59607;52.130;5.430;2023-06-26T04:50:13;101378.00;;;27.50;52.54
71774;BME280;59607;52.130;5.430;2023-06-26T04:52:40;101388.34;;;27.84;51.36
71774;BME280;59607;52.130;5.430;2023-06-26T04:55:15;101395.53;;;27.52;51.77
71774;BME280;59607;52.130;5.430;2023-06-26T04:57:41;101402.19;;;26.47;54.09
71774;BME280;59607;52.130;5.430;2023-06-26T05:00:13;101404.28;;;26.78;54.54
71774;BME280;59607;52.130;5.430;2023-06-26T05:02:45;101401.16;;;26.54;53.91
71774;BME280;59607;52.130;5.430;2023-06-26T05:05:12;101407.63;;;27.50;51.92
71774;BME280;59607;52.130;5.430;2023-06-26T05:07:42;101411.53;;;27.95;50.55
71774;BME280;59607;52.130;5.430;2023-06-26T05:10:08;101409.16;;;28.72;47.99
71774;BME280;59607;52.130;5.430;2023-06-26T05:12:35;101404.13;;;29.31;46.65
71774;BME280;59607;52.130;5.430;2023-06-26T05:15:02;101403.56;;;29.40;46.14
71774;BME280;59607;52.130;5.430;2023-06-26T05:17:31;101408.06;;;28.21;48.44
71774;BME280;59607;52.130;5.430;2023-06-26T05:19:57;101410.34;;;29.32;46.44
71774;BME280;59607;52.130;5.430;2023-06-26T05:22:39;101408.44;;;29.88;44.93
71774;BME280;59607;52.130;5.430;2023-06-26T05:25:13;101416.47;;;30.39;44.12
71774;BME280;59607;52.130;5.430;2023-06-26T05:27:41;101422.06;;;30.77;43.16
71774;BME280;59607;52.130;5.430;2023-06-26T05:30:14;101422.72;;;31.18;42.38
71774;BME280;59607;52.130;5.430;2023-06-26T05:32:41;101434.84;;;29.51;44.64
71774;BME280;59607;52.130;5.430;2023-06-26T05:35:12;101446.59;;;27.85;48.77
71774;BME280;59607;52.130;5.430;2023-06-26T05:37:48;101434.81;;;28.33;48.24
71774;BME280;59607;52.130;5.430;2023-06-26T05:40:19;101437.38;;;30.33;44.02
71774;BME280;59607;52.130;5.430;2023-06-26T05:42:46;101442.34;;;31.73;41.24
71774;BME280;59607;52.130;5.430;2023-06-26T05:45:18;101445.88;;;32.79;38.98
71774;BME280;59607;52.130;5.430;2023-06-26T05:47:52;101446.16;;;32.63;38.31
71774;BME280;59607;52.130;5.430;2023-06-26T05:52:58;101449.81;;;33.00;37.55
71774;BME280;59607;52.130;5.430;2023-06-26T05:55:32;101451.03;;;33.22;36.80
71774;BME280;59607;52.130;5.430;2023-06-26T05:57:59;101453.69;;;33.65;35.84
71774;BME280;59607;52.130;5.430;2023-06-26T06:00:26;101460.78;;;33.38;36.12
71774;BME280;59607;52.130;5.430;2023-06-26T06:02:55;101467.94;;;33.33;36.38
71774;BME280;59607;52.130;5.430;2023-06-26T06:05:23;101471.06;;;33.27;36.02
71774;BME280;59607;52.130;5.430;2023-06-26T06:07:52;101481.41;;;33.53;36.34
71774;BME280;59607;52.130;5.430;2023-06-26T06:10:19;101490.25;;;33.72;35.30
71774;BME280;59607;52.130;5.430;2023-06-26T06:12:45;101498.88;;;33.23;35.15
71774;BME280;59607;52.130;5.430;2023-06-26T06:15:13;101495.75;;;32.69;35.43
71774;BME280;59607;52.130;5.430;2023-06-26T06:17:43;101498.94;;;32.57;36.39
71774;BME280;59607;52.130;5.430;2023-06-26T06:20:10;101505.72;;;32.21;36.69
71774;BME280;59607;52.130;5.430;2023-06-26T06:22:36;101501.34;;;31.13;38.56
71774;BME280;59607;52.130;5.430;2023-06-26T06:25:09;101517.38;;;30.45;40.58
71774;BME280;59607;52.130;5.430;2023-06-26T06:27:35;101516.19;;;29.50;42.76
71774;BME280;59607;52.130;5.430;2023-06-26T06:30:06;101518.44;;;28.75;44.14
71774;BME280;59607;52.130;5.430;2023-06-26T06:32:39;101526.53;;;28.33;45.27
71774;BME280;59607;52.130;5.430;2023-06-26T06:35:09;101527.50;;;27.04;47.53
71774;BME280;59607;52.130;5.430;2023-06-26T06:37:39;101534.03;;;26.53;49.75
71774;BME280;59607;52.130;5.430;2023-06-26T06:40:10;101545.94;;;26.12;50.10
71774;BME280;59607;52.130;5.430;2023-06-26T06:42:37;101553.25;;;25.72;51.75
71774;BME280;59607;52.130;5.430;2023-06-26T06:45:04;101559.47;;;25.72;52.32
71774;BME280;59607;52.130;5.430;2023-06-26T06:47:32;101559.72;;;26.16;51.17
71774;BME280;59607;52.130;5.430;2023-06-26T06:50:03;101565.69;;;26.00;51.96
71774;BME280;59607;52.130;5.430;2023-06-26T06:52:57;101578.16;;;25.50;52.92
71774;BME280;59607;52.130;5.430;2023-06-26T06:55:23;101581.34;;;25.47;53.75
71774;BME280;59607;52.130;5.430;2023-06-26T06:57:52;101570.25;;;25.78;53.33
71774;BME280;59607;52.130;5.430;2023-06-26T07:00:22;101565.03;;;26.10;52.35
71774;BME280;59607;52.130;5.430;2023-06-26T07:02:57;101564.78;;;25.90;52.93
71774;BME280;59607;52.130;5.430;2023-06-26T07:05:29;101565.13;;;25.59;53.40
71774;BME280;59607;52.130;5.430;2023-06-26T07:07:56;101579.47;;;25.82;53.52
71774;BME280;59607;52.130;5.430;2023-06-26T07:10:26;101575.69;;;25.83;52.67
71774;BME280;59607;52.130;5.430;2023-06-26T07:12:52;101572.22;;;25.82;53.10
71774;BME280;59607;52.130;5.430;2023-06-26T07:15:19;101580.47;;;25.98;53.46
71774;BME280;59607;52.130;5.430;2023-06-26T07:17:52;101582.53;;;26.13;53.33
71774;BME280;59607;52.130;5.430;2023-06-26T07:20:20;101595.03;;;26.02;52.69
71774;BME280;59607;52.130;5.430;2023-06-26T07:22:50;101591.84;;;26.28;52.81
71774;BME280;59607;52.130;5.430;2023-06-26T07:25:29;101601.13;;;26.37;52.13
71774;BME280;59607;52.130;5.430;2023-06-26T07:28:01;101609.34;;;26.08;53.36
71774;BME280;59607;52.130;5.430;2023-06-26T07:30:28;101601.44;;;25.61;54.11
71774;BME280;59607;52.130;5.430;2023-06-26T07:32:54;101605.53;;;25.64;54.00
71774;BME280;59607;52.130;5.430;2023-06-26T07:35:24;101605.22;;;25.43;54.48
71774;BME280;59607;52.130;5.430;2023-06-26T07:37:53;101609.03;;;25.30;55.02
71774;BME280;59607;52.130;5.430;2023-06-26T07:40:33;101617.56;;;25.44;55.36
71774;BME280;59607;52.130;5.430;2023-06-26T07:43:00;101610.38;;;25.84;54.00
71774;BME280;59607;52.130;5.430;2023-06-26T07:45:29;101605.41;;;26.16;53.61
71774;BME280;59607;52.130;5.430;2023-06-26T07:47:56;101608.50;;;26.47;52.38
71774;BME280;59607;52.130;5.430;2023-06-26T07:50:28;101609.38;;;26.80;51.41
71774;BME280;59607;52.130;5.430;2023-06-26T07:53:03;101611.22;;;26.80;51.06
71774;BME280;59607;52.130;5.430;2023-06-26T07:55:36;101609.88;;;27.05;50.24
71774;BME280;59607;52.130;5.430;2023-06-26T07:58:03;101618.59;;;26.90;50.33
71774;BME280;59607;52.130;5.430;2023-06-26T08:00:31;101625.50;;;26.53;51.26
71774;BME280;59607;52.130;5.430;2023-06-26T08:03:00;101626.91;;;26.16;52.30
71774;BME280;59607;52.130;5.430;2023-06-26T08:05:26;101636.47;;;25.67;53.05
71774;BME280;59607;52.130;5.430;2023-06-26T08:07:56;101632.63;;;25.45;53.81
71774;BME280;59607;52.130;5.430;2023-06-26T08:10:26;101632.94;;;25.66;53.39
71774;BME280;59607;52.130;5.430;2023-06-26T08:12:52;101619.59;;;25.71;53.25
71774;BME280;59607;52.130;5.430;2023-06-26T08:15:22;101627.56;;;25.83;53.49
71774;BME280;59607;52.130;5.430;2023-06-26T08:17:48;101630.00;;;25.85;52.23
71774;BME280;59607;52.130;5.430;2023-06-26T08:20:18;101631.09;;;25.67;52.75
71774;BME280;59607;52.130;5.430;2023-06-26T08:22:46;101629.28;;;25.90;52.42
71774;BME280;59607;52.130;5.430;2023-06-26T08:25:17;101633.31;;;26.09;52.00
71774;BME280;59607;52.130;5.430;2023-06-26T08:27:49;101642.88;;;25.83;51.84
71774;BME280;59607;52.130;5.430;2023-06-26T08:30:19;101631.63;;;25.86;52.43
71774;BME280;59607;52.130;5.430;2023-06-26T08:32:45;101638.88;;;26.25;50.80
71774;BME280;59607;52.130;5.430;2023-06-26T08:35:21;101639.97;;;26.07;50.49
71774;BME280;59607;52.130;5.430;2023-06-26T08:38:11;101640.78;;;26.30;50.25
71774;BME280;59607;52.130;5.430;2023-06-26T08:40:46;101642.69;;;26.29;48.00
71774;BME280;59607;52.130;5.430;2023-06-26T08:43:21;101656.59;;;26.04;48.70
71774;BME280;59607;52.130;5.430;2023-06-26T08:45:48;101657.34;;;25.99;48.43
71774;BME280;59607;52.130;5.430;2023-06-26T08:48:23;101656.38;;;26.28;47.41
71774;BME280;59607;52.130;5.430;2023-06-26T08:50:52;101653.84;;;26.38;47.85
71774;BME280;59607;52.130;5.430;2023-06-26T08:56:08;101668.53;;;25.73;50.48
71774;BME280;59607;52.130;5.430;2023-06-26T08:58:36;101673.09;;;25.90;48.48
71774;BME280;59607;52.130;5.430;2023-06-26T09:01:16;101669.00;;;25.87;47.92
71774;BME280;59607;52.130;5.430;2023-06-26T09:03:47;101674.38;;;25.87;47.81
71774;BME280;59607;52.130;5.430;2023-06-26T09:06:14;101687.88;;;25.58;48.19
71774;BME280;59607;52.130;5.430;2023-06-26T09:08:40;101695.94;;;25.41;48.36
71774;BME280;59607;52.130;5.430;2023-06-26T09:11:10;101687.69;;;25.31;49.56
71774;BME280;59607;52.130;5.430;2023-06-26T09:13:40;101695.00;;;25.82;48.89
71774;BME280;59607;52.130;5.430;2023-06-26T09:16:07;101702.63;;;25.38;48.25
71774;BME280;59607;52.130;5.430;2023-06-26T09:18:46;101707.41;;;25.36;47.91
71774;BME280;59607;52.130;5.430;2023-06-26T09:21:13;101715.47;;;25.54;48.32
71774;BME280;59607;52.130;5.430;2023-06-26T09:23:43;101707.38;;;25.83;48.33
71774;BME280;59607;52.130;5.430;2023-06-26T09:26:11;101707.09;;;26.19;47.43
71774;BME280;59607;52.130;5.430;2023-06-26T09:28:48;101714.47;;;26.29;46.72
71774;BME280;59607;52.130;5.430;2023-06-26T09:31:15;101714.06;;;26.20;46.15
71774;BME280;59607;52.130;5.430;2023-06-26T09:34:04;101724.59;;;26.21;45.76
71774;BME280;59607;52.130;5.430;2023-06-26T09:36:33;101723.13;;;26.13;45.27
71774;BME280;59607;52.130;5.430;2023-06-26T09:39:07;101725.06;;;26.18;46.71
71774;BME280;59607;52.130;5.430;2023-06-26T09:41:43;101723.09;;;26.48;45.38
71774;BME280;59607;52.130;5.430;2023-06-26T09:44:23;101722.34;;;26.53;44.66
71774;BME280;59607;52.130;5.430;2023-06-26T09:47:04;101716.38;;;26.51;44.86
71774;BME280;59607;52.130;5.430;2023-06-26T09:49:33;101736.41;;;26.20;45.72
71774;BME280;59607;52.130;5.430;2023-06-26T09:52:02;101743.84;;;26.13;46.55
71774;BME280;59607;52.130;5.430;2023-06-26T09:54:30;101740.41;;;26.18;47.03
71774;BME280;59607;52.130;5.430;2023-06-26T09:57:16;101744.63;;;26.13;46.71
71774;BME280;59607;52.130;5.430;2023-06-26T09:59:48;101744.53;;;26.43;45.58
71774;BME280;59607;52.130;5.430;2023-06-26T10:02:25;101748.47;;;26.00;45.21
71774;BME280;59607;52.130;5.430;2023-06-26T10:04:51;101748.91;;;26.09;46.18
71774;BME280;59607;52.130;5.430;2023-06-26T10:07:21;101749.66;;;26.44;44.80
71774;BME280;59607;52.130;5.430;2023-06-26T10:09:55;101760.44;;;26.27;45.30
71774;BME280;59607;52.130;5.430;2023-06-26T10:12:31;101767.13;;;26.07;45.23
71774;BME280;59607;52.130;5.430;2023-06-26T10:14:58;101769.50;;;25.86;44.78
71774;BME280;59607;52.130;5.430;2023-06-26T10:17:36;101775.53;;;25.77;45.59
71774;BME280;59607;52.130;5.430;2023-06-26T10:20:06;101768.69;;;26.03;44.08
71774;BME280;59607;52.130;5.430;2023-06-26T10:22:42;101770.56;;;26.37;43.86
71774;BME280;59607;52.130;5.430;2023-06-26T10:25:13;101775.81;;;26.49;43.69
71774;BME280;59607;52.130;5.430;2023-06-26T10:27:45;101772.72;;;26.80;43.33
71774;BME280;59607;52.130;5.430;2023-06-26T10:30:25;101782.59;;;26.74;43.06
71774;BME280;59607;52.130;5.430;2023-06-26T10:33:00;101779.66;;;26.76;42.60
71774;BME280;59607;52.130;5.430;2023-06-26T10:35:30;101781.16;;;26.44;43.73
71774;BME280;59607;52.130;5.430;2023-06-26T10:38:05;101791.72;;;26.51;42.88
71774;BME280;59607;52.130;5.430;2023-06-26T10:40:46;101777.41;;;26.67;42.63
71774;BME280;59607;52.130;5.430;2023-06-26T10:43:15;101792.00;;;26.71;40.48
71774;BME280;59607;52.130;5.430;2023-06-26T10:46:00;101780.34;;;26.88;41.28
71774;BME280;59607;52.130;5.430;2023-06-26T10:48:29;101772.09;;;26.95;40.63
71774;BME280;59607;52.130;5.430;2023-06-26T10:50:56;101793.09;;;26.53;41.59
71774;BME280;59607;52.130;5.430;2023-06-26T10:53:25;101792.03;;;26.77;41.77
71774;BME280;59607;52.130;5.430;2023-06-26T10:56:01;101786.75;;;27.04;40.20
71774;BME280;59607;52.130;5.430;2023-06-26T11:01:26;101796.88;;;27.69;40.14
71774;BME280;59607;52.130;5.430;2023-06-26T11:04:09;101805.84;;;27.80;39.21
71774;BME280;59607;52.130;5.430;2023-06-26T11:06:45;101771.44;;;27.60;38.81
71774;BME280;59607;52.130;5.430;2023-06-26T11:09:23;101801.91;;;27.60;40.21
71774;BME280;59607;52.130;5.430;2023-06-26T11:14:34;101807.09;;;27.67;38.61
71774;BME280;59607;52.130;5.430;2023-06-26T11:17:05;101810.06;;;27.43;39.45
71774;BME280;59607;52.130;5.430;2023-06-26T11:19:32;101800.69;;;27.46;39.68
71774;BME280;59607;52.130;5.430;2023-06-26T11:22:02;101816.66;;;27.58;40.52
71774;BME280;59607;52.130;5.430;2023-06-26T11:24:29;101821.34;;;27.95;40.35
71774;BME280;59607;52.130;5.430;2023-06-26T11:27:04;101816.56;;;28.08;39.60
71774;BME280;59607;52.130;5.430;2023-06-26T11:29:31;101825.91;;;27.90;39.19
71774;BME280;59607;52.130;5.430;2023-06-26T11:31:59;101836.22;;;27.43;40.06
71774;BME280;59607;52.130;5.430;2023-06-26T11:34:35;101836.25;;;27.70;39.72
71774;BME280;59607;52.130;5.430;2023-06-26T11:37:01;101837.13;;;27.54;39.20
71774;BME280;59607;52.130;5.430;2023-06-26T11:39:31;101830.13;;;27.30;39.97
71774;BME280;59607;52.130;5.430;2023-06-26T11:41:59;101838.91;;;27.43;40.53
71774;BME280;59607;52.130;5.430;2023-06-26T11:44:30;101838.84;;;27.38;40.05
71774;BME280;59607;52.130;5.430;2023-06-26T11:47:02;101846.88;;;27.32;40.35
71774;BME280;59607;52.130;5.430;2023-06-26T11:49:29;101856.03;;;27.59;40.17
71774;BME280;59607;52.130;5.430;2023-06-26T11:52:07;101860.88;;;27.84;39.52
71774;BME280;59607;52.130;5.430;2023-06-26T11:54:42;101864.63;;;27.83;39.13
71774;BME280;59607;52.130;5.430;2023-06-26T11:57:16;101874.47;;;27.45;39.34
71774;BME280;59607;52.130;5.430;2023-06-26T11:59:50;101873.97;;;27.48;39.02
71774;BME280;59607;52.130;5.430;2023-06-26T12:02:20;101875.59;;;27.49;37.68
71774;BME280;59607;52.130;5.430;2023-06-26T12:04:52;101881.69;;;27.39;37.83
71774;BME280;59607;52.130;5.430;2023-06-26T12:07:19;101891.06;;;27.59;38.41
71774;BME280;59607;52.130;5.430;2023-06-26T12:09:53;101877.28;;;27.55;38.83
71774;BME280;59607;52.130;5.430;2023-06-26T12:12:21;101883.81;;;27.87;37.67
71774;BME280;59607;52.130;5.430;2023-06-26T12:14:48;101891.38;;;27.85;37.15
71774;BME280;59607;52.130;5.430;2023-06-26T12:17:17;101887.44;;;27.70;37.39
71774;BME280;59607;52.130;5.430;2023-06-26T12:19:54;101892.69;;;27.60;38.17
71774;BME280;59607;52.130;5.430;2023-06-26T12:22:53;101902.16;;;27.18;38.87
71774;BME280;59607;52.130;5.430;2023-06-26T12:25:23;101904.44;;;27.26;38.21
71774;BME280;59607;52.130;5.430;2023-06-26T12:27:50;101895.22;;;27.44;38.64
71774;BME280;59607;52.130;5.430;2023-06-26T12:30:19;101886.88;;;27.68;37.97
71774;BME280;59607;52.130;5.430;2023-06-26T12:32:45;101889.19;;;28.15;37.28
71774;BME280;59607;52.130;5.430;2023-06-26T12:35:17;101887.13;;;27.94;36.71
71774;BME280;59607;52.130;5.430;2023-06-26T12:37:49;101886.94;;;27.74;37.31
71774;BME280;59607;52.130;5.430;2023-06-26T12:40:17;101893.47;;;27.33;37.54
71774;BME280;59607;52.130;5.430;2023-06-26T12:42:50;101905.56;;;27.30;37.46
71774;BME280;59607;52.130;5.430;2023-06-26T12:45:17;101904.81;;;27.57;38.25
71774;BME280;59607;52.130;5.430;2023-06-26T12:48:14;101906.72;;;27.62;37.31
71774;BME280;59607;52.130;5.430;2023-06-26T12:50:45;101908.22;;;27.53;37.87
71774;BME280;59607;52.130;5.430;2023-06-26T12:53:12;101920.03;;;27.24;38.30
71774;BME280;59607;52.130;5.430;2023-06-26T12:55:41;101913.16;;;26.94;38.28
71774;BME280;59607;52.130;5.430;2023-06-26T12:58:08;101918.88;;;26.80;38.14
71774;BME280;59607;52.130;5.430;2023-06-26T13:00:42;101919.66;;;27.15;38.71
71774;BME280;59607;52.130;5.430;2023-06-26T13:03:09;101921.28;;;27.39;38.31
71774;BME280;59607;52.130;5.430;2023-06-26T13:05:38;101924.47;;;27.35;38.62
71774;BME280;59607;52.130;5.430;2023-06-26T13:11:13;101924.41;;;27.53;38.08
71774;BME280;59607;52.130;5.430;2023-06-26T13:13:48;101913.69;;;27.58;37.45
71774;BME280;59607;52.130;5.430;2023-06-26T13:16:34;101925.97;;;27.26;38.27
71774;BME280;59607;52.130;5.430;2023-06-26T13:19:01;101929.78;;;27.08;38.92
71774;BME280;59607;52.130;5.430;2023-06-26T13:21:34;101935.34;;;26.84;38.85
71774;BME280;59607;52.130;5.430;2023-06-26T13:24:02;101929.78;;;26.73;38.85
71774;BME280;59607;52.130;5.430;2023-06-26T13:26:44;101933.88;;;26.59;39.63